sensor_id;sensor_type;location;lat;lon;timestamp;P1;durP1;ratioP1;P2;durP2;ratioP2
55647;SDS011;45266;48.756;9.246;2023-02-21T00:00:45;4.37;;;2.60;;
55647;SDS011;45266;48.756;9.246;2023-02-21T00:02:05;4.43;;;2.70;;
55647;SDS011;45266;48.756;9.246;2023-02-21T00:03:25;5.50;;;2.77;;
55647;SDS011;45266;48.756;9.246;2023-02-21T00:04:46;6.80;;;3.10;;
55647;SDS011;45266;48.756;9.246;2023-02-21T00:06:07;5.47;;;2.70;;
55647;SDS011;45266;48.756;9.246;2023-02-21T00:07:28;4.27;;;2.63;;
55647;SDS011;45266;48.756;9.246;2023-02-21T00:08:48;4.40;;;2.70;;
55647;SDS011;45266;48.756;9.246;2023-02-21T00:10:11;4.23;;;2.57;;
55647;SDS011;45266;48.756;9.246;2023-02-21T00:11:33;4.70;;;2.80;;
55647;SDS011;45266;48.756;9.246;2023-02-21T00:12:53;4.97;;;2.50;;
55647;SDS011;45266;48.756;9.246;2023-02-21T00:14:13;3.60;;;2.40;;
55647;SDS011;45266;48.756;9.246;2023-02-21T00:15:34;2.70;;;2.23;;
55647;SDS011;45266;48.756;9.246;2023-02-21T00:16:54;4.60;;;2.60;;
55647;SDS011;45266;48.756;9.246;2023-02-21T00:18:15;5.03;;;2.07;;
55647;SDS011;45266;48.756;9.246;2023-02-21T00:19:36;4.67;;;2.40;;
55647;SDS011;45266;48.756;9.246;2023-02-21T00:20:56;4.23;;;2.30;;
55647;SDS011;45266;48.756;9.246;2023-02-21T00:22:17;3.70;;;2.17;;
55647;SDS011;45266;48.756;9.246;2023-02-21T00:23:37;3.10;;;2.37;;
55647;SDS011;45266;48.756;9.246;2023-02-21T00:24:58;3.83;;;2.60;;
55647;SDS011;45266;48.756;9.246;2023-02-21T00:26:18;3.93;;;2.20;;
55647;SDS011;45266;48.756;9.246;2023-02-21T00:27:40;4.87;;;2.47;;
55647;SDS011;45266;48.756;9.246;2023-02-21T00:29:00;4.83;;;2.20;;
55647;SDS011;45266;48.756;9.246;2023-02-21T00:30:21;4.23;;;2.43;;
55647;SDS011;45266;48.756;9.246;2023-02-21T00:31:42;3.03;;;2.50;;
55647;SDS011;45266;48.756;9.246;2023-02-21T00:33:02;3.37;;;2.17;;
55647;SDS011;45266;48.756;9.246;2023-02-21T00:34:22;2.83;;;2.20;;
55647;SDS011;45266;48.756;9.246;2023-02-21T00:35:43;4.20;;;2.40;;
55647;SDS011;45266;48.756;9.246;2023-02-21T00:37:03;2.30;;;1.90;;
55647;SDS011;45266;48.756;9.246;2023-02-21T00:38:23;6.57;;;2.90;;
55647;SDS011;45266;48.756;9.246;2023-02-21T00:39:44;3.87;;;2.37;;
55647;SDS011;45266;48.756;9.246;2023-02-21T00:41:04;3.03;;;2.00;;
55647;SDS011;45266;48.756;9.246;2023-02-21T00:42:25;4.23;;;2.27;;
55647;SDS011;45266;48.756;9.246;2023-02-21T00:43:45;4.27;;;1.93;;
55647;SDS011;45266;48.756;9.246;2023-02-21T00:45:06;3.40;;;2.13;;
55647;SDS011;45266;48.756;9.246;2023-02-21T00:46:26;4.30;;;2.03;;
55647;SDS011;45266;48.756;9.246;2023-02-21T00:47:47;4.43;;;2.30;;
55647;SDS011;45266;48.756;9.246;2023-02-21T00:49:08;5.13;;;2.27;;
55647;SDS011;45266;48.756;9.246;2023-02-21T00:50:28;2.70;;;2.27;;
55647;SDS011;45266;48.756;9.246;2023-02-21T00:51:49;3.47;;;2.30;;
55647;SDS011;45266;48.756;9.246;2023-02-21T00:53:10;3.17;;;2.27;;
55647;SDS011;45266;48.756;9.246;2023-02-21T00:54:30;3.27;;;2.00;;
55647;SDS011;45266;48.756;9.246;2023-02-21T00:55:51;4.00;;;2.10;;
55647;SDS011;45266;48.756;9.246;2023-02-21T00:57:11;4.10;;;2.13;;
55647;SDS011;45266;48.756;9.246;2023-02-21T00:58:32;2.73;;;2.07;;
55647;SDS011;45266;48.756;9.246;2023-02-21T00:59:52;4.87;;;2.43;;
55647;SDS011;45266;48.756;9.246;2023-02-21T01:01:13;2.40;;;2.03;;
55647;SDS011;45266;48.756;9.246;2023-02-21T01:02:33;5.33;;;2.37;;
55647;SDS011;45266;48.756;9.246;2023-02-21T01:03:54;4.77;;;2.77;;
55647;SDS011;45266;48.756;9.246;2023-02-21T01:05:17;3.50;;;2.10;;
55647;SDS011;45266;48.756;9.246;2023-02-21T01:06:38;2.90;;;1.90;;
55647;SDS011;45266;48.756;9.246;2023-02-21T01:07:58;3.40;;;2.13;;
55647;SDS011;45266;48.756;9.246;2023-02-21T01:09:19;3.13;;;2.13;;
55647;SDS011;45266;48.756;9.246;2023-02-21T01:10:40;5.70;;;2.07;;
55647;SDS011;45266;48.756;9.246;2023-02-21T01:12:00;4.43;;;2.30;;
55647;SDS011;45266;48.756;9.246;2023-02-21T01:13:21;2.77;;;2.03;;
55647;SDS011;45266;48.756;9.246;2023-02-21T01:14:41;4.40;;;2.33;;
55647;SDS011;45266;48.756;9.246;2023-02-21T01:16:01;4.97;;;2.37;;
55647;SDS011;45266;48.756;9.246;2023-02-21T01:17:22;4.83;;;2.10;;
55647;SDS011;45266;48.756;9.246;2023-02-21T01:18:42;4.07;;;2.70;;
55647;SDS011;45266;48.756;9.246;2023-02-21T01:20:03;4.00;;;2.27;;
55647;SDS011;45266;48.756;9.246;2023-02-21T01:21:24;2.63;;;2.10;;
55647;SDS011;45266;48.756;9.246;2023-02-21T01:22:45;6.93;;;2.47;;
55647;SDS011;45266;48.756;9.246;2023-02-21T01:24:06;3.70;;;2.50;;
55647;SDS011;45266;48.756;9.246;2023-02-21T01:25:31;3.80;;;2.30;;
55647;SDS011;45266;48.756;9.246;2023-02-21T01:26:51;2.00;;;1.77;;
55647;SDS011;45266;48.756;9.246;2023-02-21T01:28:11;3.37;;;2.50;;
55647;SDS011;45266;48.756;9.246;2023-02-21T01:29:32;2.93;;;1.97;;
55647;SDS011;45266;48.756;9.246;2023-02-21T01:30:53;3.07;;;2.13;;
55647;SDS011;45266;48.756;9.246;2023-02-21T01:32:14;5.67;;;2.50;;
55647;SDS011;45266;48.756;9.246;2023-02-21T01:33:39;5.10;;;2.17;;
55647;SDS011;45266;48.756;9.246;2023-02-21T01:35:00;3.63;;;2.00;;
55647;SDS011;45266;48.756;9.246;2023-02-21T01:36:21;4.43;;;2.13;;
55647;SDS011;45266;48.756;9.246;2023-02-21T01:37:41;4.87;;;1.90;;
55647;SDS011;45266;48.756;9.246;2023-02-21T01:39:02;3.97;;;2.10;;
55647;SDS011;45266;48.756;9.246;2023-02-21T01:40:22;4.03;;;2.20;;
55647;SDS011;45266;48.756;9.246;2023-02-21T01:41:43;3.00;;;1.97;;
55647;SDS011;45266;48.756;9.246;2023-02-21T01:43:12;4.03;;;2.10;;
55647;SDS011;45266;48.756;9.246;2023-02-21T01:44:37;5.30;;;2.40;;
55647;SDS011;45266;48.756;9.246;2023-02-21T01:46:04;3.70;;;2.30;;
55647;SDS011;45266;48.756;9.246;2023-02-21T01:47:25;5.90;;;2.37;;
55647;SDS011;45266;48.756;9.246;2023-02-21T01:48:46;5.03;;;1.97;;
55647;SDS011;45266;48.756;9.246;2023-02-21T01:50:14;2.97;;;2.17;;
55647;SDS011;45266;48.756;9.246;2023-02-21T01:51:43;4.97;;;2.33;;
55647;SDS011;45266;48.756;9.246;2023-02-21T01:53:05;2.37;;;1.90;;
55647;SDS011;45266;48.756;9.246;2023-02-21T01:54:30;4.13;;;2.10;;
55647;SDS011;45266;48.756;9.246;2023-02-21T01:55:57;3.10;;;2.20;;
55647;SDS011;45266;48.756;9.246;2023-02-21T01:57:20;5.07;;;2.37;;
55647;SDS011;45266;48.756;9.246;2023-02-21T01:58:41;4.13;;;2.50;;
55647;SDS011;45266;48.756;9.246;2023-02-21T02:00:04;3.13;;;2.07;;
55647;SDS011;45266;48.756;9.246;2023-02-21T02:01:28;3.23;;;2.20;;
55647;SDS011;45266;48.756;9.246;2023-02-21T02:03:20;3.63;;;2.10;;
55647;SDS011;45266;48.756;9.246;2023-02-21T02:04:40;4.53;;;2.07;;
55647;SDS011;45266;48.756;9.246;2023-02-21T02:06:04;5.67;;;2.27;;
55647;SDS011;45266;48.756;9.246;2023-02-21T02:07:26;3.23;;;2.03;;
55647;SDS011;45266;48.756;9.246;2023-02-21T02:08:47;3.23;;;2.13;;
55647;SDS011;45266;48.756;9.246;2023-02-21T02:10:08;3.13;;;2.30;;
55647;SDS011;45266;48.756;9.246;2023-02-21T02:11:42;3.00;;;2.10;;
55647;SDS011;45266;48.756;9.246;2023-02-21T02:16:45;4.83;;;2.13;;
55647;SDS011;45266;48.756;9.246;2023-02-21T02:36:29;3.03;;;2.30;;
55647;SDS011;45266;48.756;9.246;2023-02-21T02:38:55;3.43;;;2.33;;
55647;SDS011;45266;48.756;9.246;2023-02-21T02:43:54;4.27;;;2.20;;
55647;SDS011;45266;48.756;9.246;2023-02-21T02:47:35;4.03;;;2.00;;
55647;SDS011;45266;48.756;9.246;2023-02-21T02:48:40;5.67;;;2.20;;
55647;SDS011;45266;48.756;9.246;2023-02-21T02:49:46;4.67;;;2.20;;
55647;SDS011;45266;48.756;9.246;2023-02-21T02:50:50;2.83;;;2.30;;
55647;SDS011;45266;48.756;9.246;2023-02-21T02:51:53;4.90;;;2.00;;
55647;SDS011;45266;48.756;9.246;2023-02-21T02:52:57;4.93;;;2.37;;
55647;SDS011;45266;48.756;9.246;2023-02-21T02:54:02;3.13;;;2.40;;
55647;SDS011;45266;48.756;9.246;2023-02-21T02:55:20;3.63;;;1.97;;
55647;SDS011;45266;48.756;9.246;2023-02-21T02:56:31;3.77;;;1.80;;
55647;SDS011;45266;48.756;9.246;2023-02-21T02:57:33;3.37;;;2.30;;
55647;SDS011;45266;48.756;9.246;2023-02-21T02:58:52;2.77;;;2.20;;
55647;SDS011;45266;48.756;9.246;2023-02-21T02:59:57;3.00;;;2.07;;
55647;SDS011;45266;48.756;9.246;2023-02-21T03:10:47;2.93;;;2.20;;
55647;SDS011;45266;48.756;9.246;2023-02-21T03:12:02;3.23;;;2.10;;
55647;SDS011;45266;48.756;9.246;2023-02-21T03:13:20;4.33;;;2.10;;
55647;SDS011;45266;48.756;9.246;2023-02-21T03:14:44;3.93;;;2.40;;
55647;SDS011;45266;48.756;9.246;2023-02-21T03:15:52;4.47;;;1.83;;
55647;SDS011;45266;48.756;9.246;2023-02-21T03:17:00;7.67;;;2.33;;
55647;SDS011;45266;48.756;9.246;2023-02-21T03:19:25;3.33;;;2.13;;
55647;SDS011;45266;48.756;9.246;2023-02-21T03:20:31;3.73;;;2.27;;
55647;SDS011;45266;48.756;9.246;2023-02-21T03:21:35;2.97;;;2.00;;
55647;SDS011;45266;48.756;9.246;2023-02-21T03:22:42;2.37;;;1.93;;
55647;SDS011;45266;48.756;9.246;2023-02-21T03:23:47;2.43;;;2.00;;
55647;SDS011;45266;48.756;9.246;2023-02-21T03:24:52;5.07;;;2.37;;
55647;SDS011;45266;48.756;9.246;2023-02-21T03:25:59;3.13;;;2.27;;
55647;SDS011;45266;48.756;9.246;2023-02-21T03:27:05;2.33;;;2.13;;
55647;SDS011;45266;48.756;9.246;2023-02-21T03:28:08;3.43;;;2.30;;
55647;SDS011;45266;48.756;9.246;2023-02-21T03:29:10;2.93;;;2.07;;
55647;SDS011;45266;48.756;9.246;2023-02-21T03:30:13;6.47;;;2.40;;
55647;SDS011;45266;48.756;9.246;2023-02-21T03:31:16;3.63;;;2.03;;
55647;SDS011;45266;48.756;9.246;2023-02-21T03:32:26;2.83;;;1.80;;
55647;SDS011;45266;48.756;9.246;2023-02-21T03:34:02;3.63;;;2.13;;
55647;SDS011;45266;48.756;9.246;2023-02-21T03:35:04;3.70;;;2.20;;
55647;SDS011;45266;48.756;9.246;2023-02-21T03:36:07;3.30;;;2.07;;
55647;SDS011;45266;48.756;9.246;2023-02-21T03:37:17;3.47;;;1.80;;
55647;SDS011;45266;48.756;9.246;2023-02-21T03:38:40;5.57;;;2.00;;
55647;SDS011;45266;48.756;9.246;2023-02-21T03:39:42;2.63;;;2.10;;
55647;SDS011;45266;48.756;9.246;2023-02-21T03:40:43;3.73;;;2.00;;
55647;SDS011;45266;48.756;9.246;2023-02-21T03:41:45;6.03;;;2.40;;
55647;SDS011;45266;48.756;9.246;2023-02-21T03:42:47;2.20;;;1.90;;
55647;SDS011;45266;48.756;9.246;2023-02-21T03:43:49;3.67;;;2.50;;
55647;SDS011;45266;48.756;9.246;2023-02-21T03:44:50;3.67;;;2.43;;
55647;SDS011;45266;48.756;9.246;2023-02-21T03:45:52;3.50;;;2.10;;
55647;SDS011;45266;48.756;9.246;2023-02-21T03:46:54;3.43;;;2.17;;
55647;SDS011;45266;48.756;9.246;2023-02-21T03:47:56;2.87;;;2.10;;
55647;SDS011;45266;48.756;9.246;2023-02-21T03:48:57;5.10;;;2.43;;
55647;SDS011;45266;48.756;9.246;2023-02-21T03:49:59;3.70;;;2.20;;
55647;SDS011;45266;48.756;9.246;2023-02-21T03:51:01;5.77;;;2.10;;
55647;SDS011;45266;48.756;9.246;2023-02-21T03:52:03;3.80;;;2.53;;
55647;SDS011;45266;48.756;9.246;2023-02-21T03:53:05;4.47;;;2.10;;
55647;SDS011;45266;48.756;9.246;2023-02-21T03:54:09;6.43;;;2.27;;
55647;SDS011;45266;48.756;9.246;2023-02-21T03:55:11;3.17;;;2.47;;
55647;SDS011;45266;48.756;9.246;2023-02-21T03:56:13;5.07;;;2.80;;
55647;SDS011;45266;48.756;9.246;2023-02-21T03:57:15;6.43;;;2.17;;
55647;SDS011;45266;48.756;9.246;2023-02-21T03:58:17;5.13;;;2.30;;
55647;SDS011;45266;48.756;9.246;2023-02-21T03:59:18;3.53;;;2.30;;
55647;SDS011;45266;48.756;9.246;2023-02-21T04:00:20;5.17;;;2.27;;
55647;SDS011;45266;48.756;9.246;2023-02-21T04:01:22;4.00;;;2.47;;
55647;SDS011;45266;48.756;9.246;2023-02-21T04:02:24;4.00;;;2.57;;
55647;SDS011;45266;48.756;9.246;2023-02-21T04:03:26;2.97;;;2.27;;
55647;SDS011;45266;48.756;9.246;2023-02-21T04:04:28;6.30;;;2.37;;
55647;SDS011;45266;48.756;9.246;2023-02-21T04:05:30;2.83;;;2.30;;
55647;SDS011;45266;48.756;9.246;2023-02-21T04:06:31;3.70;;;2.10;;
55647;SDS011;45266;48.756;9.246;2023-02-21T04:07:33;4.83;;;2.27;;
55647;SDS011;45266;48.756;9.246;2023-02-21T04:08:35;6.00;;;2.40;;
55647;SDS011;45266;48.756;9.246;2023-02-21T04:09:36;3.40;;;2.43;;
55647;SDS011;45266;48.756;9.246;2023-02-21T04:10:39;3.40;;;2.23;;
55647;SDS011;45266;48.756;9.246;2023-02-21T04:11:52;7.63;;;2.00;;
55647;SDS011;45266;48.756;9.246;2023-02-21T04:12:54;2.40;;;2.03;;
55647;SDS011;45266;48.756;9.246;2023-02-21T04:13:56;2.10;;;1.80;;
55647;SDS011;45266;48.756;9.246;2023-02-21T04:14:57;7.57;;;4.40;;
55647;SDS011;45266;48.756;9.246;2023-02-21T04:15:59;7.00;;;3.73;;
55647;SDS011;45266;48.756;9.246;2023-02-21T04:17:01;3.83;;;2.47;;
55647;SDS011;45266;48.756;9.246;2023-02-21T04:18:03;4.73;;;2.40;;
55647;SDS011;45266;48.756;9.246;2023-02-21T04:19:04;3.70;;;2.20;;
55647;SDS011;45266;48.756;9.246;2023-02-21T04:20:06;3.07;;;1.83;;
55647;SDS011;45266;48.756;9.246;2023-02-21T04:21:08;2.50;;;1.87;;
55647;SDS011;45266;48.756;9.246;2023-02-21T04:22:10;4.50;;;2.10;;
55647;SDS011;45266;48.756;9.246;2023-02-21T04:23:16;4.03;;;2.10;;
55647;SDS011;45266;48.756;9.246;2023-02-21T04:24:19;3.50;;;2.30;;
55647;SDS011;45266;48.756;9.246;2023-02-21T04:25:20;5.60;;;2.13;;
55647;SDS011;45266;48.756;9.246;2023-02-21T04:26:22;2.20;;;2.00;;
55647;SDS011;45266;48.756;9.246;2023-02-21T04:27:24;2.93;;;2.40;;
55647;SDS011;45266;48.756;9.246;2023-02-21T04:28:27;6.87;;;2.27;;
55647;SDS011;45266;48.756;9.246;2023-02-21T04:29:28;3.13;;;2.13;;
55647;SDS011;45266;48.756;9.246;2023-02-21T04:30:30;6.27;;;2.40;;
55647;SDS011;45266;48.756;9.246;2023-02-21T04:31:32;3.90;;;2.30;;
55647;SDS011;45266;48.756;9.246;2023-02-21T04:32:34;4.20;;;2.30;;
55647;SDS011;45266;48.756;9.246;2023-02-21T04:33:36;3.73;;;2.20;;
55647;SDS011;45266;48.756;9.246;2023-02-21T04:34:37;3.53;;;2.17;;
55647;SDS011;45266;48.756;9.246;2023-02-21T04:35:39;2.60;;;2.23;;
55647;SDS011;45266;48.756;9.246;2023-02-21T04:36:41;3.80;;;2.27;;
55647;SDS011;45266;48.756;9.246;2023-02-21T04:37:43;3.40;;;2.17;;
55647;SDS011;45266;48.756;9.246;2023-02-21T04:38:45;3.83;;;2.37;;
55647;SDS011;45266;48.756;9.246;2023-02-21T04:39:47;5.77;;;2.27;;
55647;SDS011;45266;48.756;9.246;2023-02-21T04:40:48;3.43;;;1.90;;
55647;SDS011;45266;48.756;9.246;2023-02-21T04:41:50;4.47;;;2.30;;
55647;SDS011;45266;48.756;9.246;2023-02-21T04:42:52;3.50;;;2.40;;
55647;SDS011;45266;48.756;9.246;2023-02-21T04:43:53;4.57;;;2.30;;
55647;SDS011;45266;48.756;9.246;2023-02-21T04:44:55;3.43;;;2.40;;
55647;SDS011;45266;48.756;9.246;2023-02-21T04:46:00;2.77;;;2.13;;
55647;SDS011;45266;48.756;9.246;2023-02-21T04:47:02;5.90;;;2.37;;
55647;SDS011;45266;48.756;9.246;2023-02-21T04:48:04;3.10;;;2.40;;
55647;SDS011;45266;48.756;9.246;2023-02-21T04:49:06;2.57;;;2.23;;
55647;SDS011;45266;48.756;9.246;2023-02-21T04:50:08;7.63;;;2.57;;
55647;SDS011;45266;48.756;9.246;2023-02-21T04:51:10;2.63;;;1.90;;
55647;SDS011;45266;48.756;9.246;2023-02-21T04:52:17;3.20;;;2.23;;
55647;SDS011;45266;48.756;9.246;2023-02-21T04:53:21;2.50;;;2.20;;
55647;SDS011;45266;48.756;9.246;2023-02-21T04:54:23;2.93;;;2.23;;
55647;SDS011;45266;48.756;9.246;2023-02-21T04:55:25;4.47;;;2.20;;
55647;SDS011;45266;48.756;9.246;2023-02-21T04:56:27;4.07;;;2.50;;
55647;SDS011;45266;48.756;9.246;2023-02-21T04:57:29;2.80;;;2.00;;
55647;SDS011;45266;48.756;9.246;2023-02-21T04:58:31;2.83;;;2.10;;
55647;SDS011;45266;48.756;9.246;2023-02-21T04:59:45;3.63;;;2.30;;
55647;SDS011;45266;48.756;9.246;2023-02-21T05:00:47;4.23;;;2.10;;
55647;SDS011;45266;48.756;9.246;2023-02-21T05:01:49;3.73;;;2.10;;
55647;SDS011;45266;48.756;9.246;2023-02-21T05:02:50;7.80;;;2.73;;
55647;SDS011;45266;48.756;9.246;2023-02-21T05:03:52;2.43;;;2.10;;
55647;SDS011;45266;48.756;9.246;2023-02-21T05:04:54;4.07;;;2.30;;
55647;SDS011;45266;48.756;9.246;2023-02-21T05:05:56;4.13;;;1.97;;
55647;SDS011;45266;48.756;9.246;2023-02-21T05:06:58;3.40;;;1.97;;
55647;SDS011;45266;48.756;9.246;2023-02-21T05:08:01;4.33;;;2.10;;
55647;SDS011;45266;48.756;9.246;2023-02-21T05:09:03;3.23;;;2.00;;
55647;SDS011;45266;48.756;9.246;2023-02-21T05:10:06;3.60;;;2.13;;
55647;SDS011;45266;48.756;9.246;2023-02-21T05:11:09;6.57;;;2.23;;
55647;SDS011;45266;48.756;9.246;2023-02-21T05:12:11;2.60;;;2.20;;
55647;SDS011;45266;48.756;9.246;2023-02-21T05:13:13;3.87;;;1.73;;
55647;SDS011;45266;48.756;9.246;2023-02-21T05:14:15;5.23;;;2.53;;
55647;SDS011;45266;48.756;9.246;2023-02-21T05:15:18;2.37;;;2.07;;
55647;SDS011;45266;48.756;9.246;2023-02-21T05:16:20;2.70;;;2.03;;
55647;SDS011;45266;48.756;9.246;2023-02-21T05:17:22;3.53;;;2.20;;
55647;SDS011;45266;48.756;9.246;2023-02-21T05:18:23;4.17;;;2.20;;
55647;SDS011;45266;48.756;9.246;2023-02-21T05:19:28;3.33;;;2.10;;
55647;SDS011;45266;48.756;9.246;2023-02-21T05:20:30;4.73;;;2.37;;
55647;SDS011;45266;48.756;9.246;2023-02-21T05:21:35;2.83;;;2.20;;
55647;SDS011;45266;48.756;9.246;2023-02-21T05:22:40;3.88;;;2.42;;
55647;SDS011;45266;48.756;9.246;2023-02-21T05:23:43;5.63;;;2.10;;
55647;SDS011;45266;48.756;9.246;2023-02-21T05:24:56;2.77;;;2.20;;
55647;SDS011;45266;48.756;9.246;2023-02-21T05:26:08;3.30;;;2.10;;
55647;SDS011;45266;48.756;9.246;2023-02-21T05:27:12;3.27;;;2.50;;
55647;SDS011;45266;48.756;9.246;2023-02-21T05:28:15;3.60;;;2.50;;
55647;SDS011;45266;48.756;9.246;2023-02-21T05:29:17;5.07;;;2.60;;
55647;SDS011;45266;48.756;9.246;2023-02-21T05:30:20;2.43;;;2.10;;
55647;SDS011;45266;48.756;9.246;2023-02-21T05:31:24;3.77;;;2.20;;
55647;SDS011;45266;48.756;9.246;2023-02-21T05:32:26;3.53;;;2.17;;
55647;SDS011;45266;48.756;9.246;2023-02-21T05:33:29;3.63;;;2.30;;
55647;SDS011;45266;48.756;9.246;2023-02-21T05:34:31;3.87;;;2.30;;
55647;SDS011;45266;48.756;9.246;2023-02-21T05:35:33;8.07;;;2.23;;
55647;SDS011;45266;48.756;9.246;2023-02-21T05:36:35;2.93;;;2.13;;
55647;SDS011;45266;48.756;9.246;2023-02-21T05:37:37;2.50;;;2.07;;
55647;SDS011;45266;48.756;9.246;2023-02-21T05:38:45;5.63;;;3.33;;
55647;SDS011;45266;48.756;9.246;2023-02-21T05:39:49;5.77;;;4.43;;
55647;SDS011;45266;48.756;9.246;2023-02-21T05:40:51;4.57;;;3.30;;
55647;SDS011;45266;48.756;9.246;2023-02-21T05:41:53;3.93;;;2.50;;
55647;SDS011;45266;48.756;9.246;2023-02-21T05:42:55;4.63;;;2.23;;
55647;SDS011;45266;48.756;9.246;2023-02-21T05:43:57;2.90;;;2.37;;
55647;SDS011;45266;48.756;9.246;2023-02-21T05:44:58;3.80;;;2.40;;
55647;SDS011;45266;48.756;9.246;2023-02-21T05:46:00;4.53;;;2.40;;
55647;SDS011;45266;48.756;9.246;2023-02-21T05:47:02;5.47;;;3.00;;
55647;SDS011;45266;48.756;9.246;2023-02-21T05:48:04;6.47;;;4.07;;
55647;SDS011;45266;48.756;9.246;2023-02-21T05:49:06;6.63;;;3.60;;
55647;SDS011;45266;48.756;9.246;2023-02-21T05:50:08;4.53;;;3.30;;
55647;SDS011;45266;48.756;9.246;2023-02-21T05:51:10;5.63;;;2.97;;
55647;SDS011;45266;48.756;9.246;2023-02-21T05:52:14;4.63;;;2.57;;
55647;SDS011;45266;48.756;9.246;2023-02-21T05:53:17;3.23;;;2.20;;
55647;SDS011;45266;48.756;9.246;2023-02-21T05:54:19;6.53;;;3.00;;
55647;SDS011;45266;48.756;9.246;2023-02-21T05:55:22;3.47;;;2.77;;
55647;SDS011;45266;48.756;9.246;2023-02-21T05:56:24;4.30;;;2.53;;
55647;SDS011;45266;48.756;9.246;2023-02-21T05:57:26;4.43;;;2.47;;
55647;SDS011;45266;48.756;9.246;2023-02-21T05:58:27;4.87;;;2.50;;
55647;SDS011;45266;48.756;9.246;2023-02-21T05:59:29;3.37;;;2.03;;
55647;SDS011;45266;48.756;9.246;2023-02-21T06:00:31;2.50;;;2.00;;
55647;SDS011;45266;48.756;9.246;2023-02-21T06:01:33;4.03;;;2.43;;
55647;SDS011;45266;48.756;9.246;2023-02-21T06:02:35;2.47;;;1.80;;
55647;SDS011;45266;48.756;9.246;2023-02-21T06:03:36;3.90;;;2.07;;
55647;SDS011;45266;48.756;9.246;2023-02-21T06:04:38;3.10;;;2.27;;
55647;SDS011;45266;48.756;9.246;2023-02-21T06:05:40;2.70;;;2.17;;
55647;SDS011;45266;48.756;9.246;2023-02-21T06:06:42;2.80;;;2.10;;
55647;SDS011;45266;48.756;9.246;2023-02-21T06:07:44;4.03;;;2.20;;
55647;SDS011;45266;48.756;9.246;2023-02-21T06:08:47;3.30;;;2.20;;
55647;SDS011;45266;48.756;9.246;2023-02-21T06:09:49;3.70;;;2.70;;
55647;SDS011;45266;48.756;9.246;2023-02-21T06:10:52;7.67;;;3.00;;
55647;SDS011;45266;48.756;9.246;2023-02-21T06:11:54;3.60;;;2.40;;
55647;SDS011;45266;48.756;9.246;2023-02-21T06:12:56;3.70;;;2.30;;
55647;SDS011;45266;48.756;9.246;2023-02-21T06:13:59;4.07;;;3.07;;
55647;SDS011;45266;48.756;9.246;2023-02-21T06:15:05;5.30;;;2.83;;
55647;SDS011;45266;48.756;9.246;2023-02-21T06:16:07;3.83;;;2.47;;
55647;SDS011;45266;48.756;9.246;2023-02-21T06:17:09;4.63;;;2.40;;
55647;SDS011;45266;48.756;9.246;2023-02-21T06:18:11;3.90;;;2.87;;
55647;SDS011;45266;48.756;9.246;2023-02-21T06:19:15;5.33;;;2.70;;
55647;SDS011;45266;48.756;9.246;2023-02-21T06:20:17;9.07;;;2.97;;
55647;SDS011;45266;48.756;9.246;2023-02-21T06:21:19;5.40;;;3.03;;
55647;SDS011;45266;48.756;9.246;2023-02-21T06:22:21;10.80;;;3.80;;
55647;SDS011;45266;48.756;9.246;2023-02-21T06:23:23;4.87;;;3.07;;
55647;SDS011;45266;48.756;9.246;2023-02-21T06:24:25;5.43;;;3.20;;
55647;SDS011;45266;48.756;9.246;2023-02-21T06:25:27;6.63;;;3.43;;
55647;SDS011;45266;48.756;9.246;2023-02-21T06:26:29;8.50;;;4.17;;
55647;SDS011;45266;48.756;9.246;2023-02-21T06:27:31;5.07;;;3.00;;
55647;SDS011;45266;48.756;9.246;2023-02-21T06:28:32;5.97;;;3.50;;
55647;SDS011;45266;48.756;9.246;2023-02-21T06:29:34;8.07;;;5.10;;
55647;SDS011;45266;48.756;9.246;2023-02-21T06:30:36;8.30;;;4.70;;
55647;SDS011;45266;48.756;9.246;2023-02-21T06:31:38;7.37;;;4.30;;
55647;SDS011;45266;48.756;9.246;2023-02-21T06:32:40;7.63;;;4.27;;
55647;SDS011;45266;48.756;9.246;2023-02-21T06:33:43;5.27;;;3.43;;
55647;SDS011;45266;48.756;9.246;2023-02-21T06:34:45;15.27;;;9.07;;
55647;SDS011;45266;48.756;9.246;2023-02-21T06:35:46;7.70;;;4.50;;
55647;SDS011;45266;48.756;9.246;2023-02-21T06:36:52;5.63;;;3.77;;
55647;SDS011;45266;48.756;9.246;2023-02-21T06:37:54;6.80;;;4.10;;
55647;SDS011;45266;48.756;9.246;2023-02-21T06:38:56;6.00;;;3.80;;
55647;SDS011;45266;48.756;9.246;2023-02-21T06:39:58;9.67;;;4.90;;
55647;SDS011;45266;48.756;9.246;2023-02-21T06:41:04;16.07;;;8.67;;
55647;SDS011;45266;48.756;9.246;2023-02-21T06:42:10;15.50;;;11.43;;
55647;SDS011;45266;48.756;9.246;2023-02-21T06:43:16;13.77;;;8.47;;
55647;SDS011;45266;48.756;9.246;2023-02-21T06:44:18;9.50;;;6.23;;
55647;SDS011;45266;48.756;9.246;2023-02-21T06:45:20;8.33;;;4.90;;
55647;SDS011;45266;48.756;9.246;2023-02-21T06:46:22;7.07;;;4.50;;
55647;SDS011;45266;48.756;9.246;2023-02-21T06:47:27;7.77;;;4.70;;
55647;SDS011;45266;48.756;9.246;2023-02-21T06:48:29;9.53;;;5.07;;
55647;SDS011;45266;48.756;9.246;2023-02-21T06:49:31;6.77;;;4.60;;
55647;SDS011;45266;48.756;9.246;2023-02-21T06:50:33;8.53;;;5.57;;
55647;SDS011;45266;48.756;9.246;2023-02-21T06:51:39;9.13;;;5.60;;
55647;SDS011;45266;48.756;9.246;2023-02-21T06:52:41;7.00;;;4.20;;
55647;SDS011;45266;48.756;9.246;2023-02-21T06:53:43;8.17;;;4.80;;
55647;SDS011;45266;48.756;9.246;2023-02-21T06:54:49;15.23;;;5.00;;
55647;SDS011;45266;48.756;9.246;2023-02-21T06:55:51;6.90;;;4.60;;
55647;SDS011;45266;48.756;9.246;2023-02-21T06:56:53;9.03;;;4.90;;
55647;SDS011;45266;48.756;9.246;2023-02-21T06:57:55;8.77;;;4.50;;
55647;SDS011;45266;48.756;9.246;2023-02-21T06:58:57;10.13;;;3.30;;
55647;SDS011;45266;48.756;9.246;2023-02-21T06:59:59;4.50;;;2.97;;
55647;SDS011;45266;48.756;9.246;2023-02-21T07:01:01;4.37;;;3.00;;
55647;SDS011;45266;48.756;9.246;2023-02-21T07:02:03;5.93;;;3.17;;
55647;SDS011;45266;48.756;9.246;2023-02-21T07:03:05;5.93;;;3.67;;
55647;SDS011;45266;48.756;9.246;2023-02-21T07:04:07;10.00;;;5.57;;
55647;SDS011;45266;48.756;9.246;2023-02-21T07:05:09;9.23;;;4.63;;
55647;SDS011;45266;48.756;9.246;2023-02-21T07:06:11;7.37;;;5.00;;
55647;SDS011;45266;48.756;9.246;2023-02-21T07:07:13;8.37;;;5.03;;
55647;SDS011;45266;48.756;9.246;2023-02-21T07:08:15;6.43;;;3.87;;
55647;SDS011;45266;48.756;9.246;2023-02-21T07:09:17;10.20;;;3.77;;
55647;SDS011;45266;48.756;9.246;2023-02-21T07:10:19;5.67;;;3.07;;
55647;SDS011;45266;48.756;9.246;2023-02-21T07:11:21;4.83;;;3.47;;
55647;SDS011;45266;48.756;9.246;2023-02-21T07:12:22;7.00;;;4.00;;
55647;SDS011;45266;48.756;9.246;2023-02-21T07:13:24;9.90;;;3.97;;
55647;SDS011;45266;48.756;9.246;2023-02-21T07:14:26;5.77;;;3.63;;
55647;SDS011;45266;48.756;9.246;2023-02-21T07:15:27;5.73;;;3.83;;
55647;SDS011;45266;48.756;9.246;2023-02-21T07:16:30;5.03;;;3.70;;
55647;SDS011;45266;48.756;9.246;2023-02-21T07:17:31;6.27;;;3.97;;
55647;SDS011;45266;48.756;9.246;2023-02-21T07:18:33;9.43;;;3.93;;
55647;SDS011;45266;48.756;9.246;2023-02-21T07:19:35;5.57;;;3.80;;
55647;SDS011;45266;48.756;9.246;2023-02-21T07:20:37;11.73;;;3.77;;
55647;SDS011;45266;48.756;9.246;2023-02-21T07:21:41;6.33;;;3.60;;
55647;SDS011;45266;48.756;9.246;2023-02-21T07:22:44;6.03;;;4.23;;
55647;SDS011;45266;48.756;9.246;2023-02-21T07:23:46;8.13;;;5.07;;
55647;SDS011;45266;48.756;9.246;2023-02-21T07:24:48;11.40;;;5.47;;
55647;SDS011;45266;48.756;9.246;2023-02-21T07:25:50;8.47;;;5.20;;
55647;SDS011;45266;48.756;9.246;2023-02-21T07:26:52;7.13;;;4.23;;
55647;SDS011;45266;48.756;9.246;2023-02-21T07:27:53;8.77;;;4.17;;
55647;SDS011;45266;48.756;9.246;2023-02-21T07:28:55;8.97;;;4.43;;
55647;SDS011;45266;48.756;9.246;2023-02-21T07:29:57;8.17;;;4.07;;
55647;SDS011;45266;48.756;9.246;2023-02-21T07:30:59;6.30;;;4.23;;
55647;SDS011;45266;48.756;9.246;2023-02-21T07:32:01;7.23;;;4.67;;
55647;SDS011;45266;48.756;9.246;2023-02-21T07:33:03;14.53;;;6.70;;